sensor_id;sensor_type;location;lat;lon;timestamp;P1;durP1;ratioP1;P2;durP2;ratioP2
2390;SDS011;22957;50.824;4.360;2024-01-15T00:02:16;32.07;;;12.90;;
2390;SDS011;22957;50.824;4.360;2024-01-15T00:04:41;37.27;;;14.57;;
2390;SDS011;22957;50.824;4.360;2024-01-15T00:07:08;27.07;;;12.93;;
2390;SDS011;22957;50.824;4.360;2024-01-15T00:09:34;29.60;;;12.10;;
2390;SDS011;22957;50.824;4.360;2024-01-15T00:12:00;27.60;;;11.87;;
2390;SDS011;22957;50.824;4.360;2024-01-15T00:14:26;24.63;;;10.00;;
2390;SDS011;22957;50.824;4.360;2024-01-15T00:16:53;29.27;;;12.80;;
2390;SDS011;22957;50.824;4.360;2024-01-15T00:19:20;28.17;;;12.07;;
2390;SDS011;22957;50.824;4.360;2024-01-15T00:21:46;23.33;;;9.50;;
2390;SDS011;22957;50.824;4.360;2024-01-15T00:24:12;25.50;;;10.40;;
2390;SDS011;22957;50.824;4.360;2024-01-15T00:26:37;26.13;;;10.17;;
2390;SDS011;22957;50.824;4.360;2024-01-15T00:29:03;25.10;;;10.97;;
2390;SDS011;22957;50.824;4.360;2024-01-15T00:31:29;26.37;;;11.47;;
2390;SDS011;22957;50.824;4.360;2024-01-15T00:33:55;23.77;;;11.23;;
2390;SDS011;22957;50.824;4.360;2024-01-15T00:36:21;24.47;;;10.13;;
2390;SDS011;22957;50.824;4.360;2024-01-15T00:38:46;19.57;;;10.03;;
2390;SDS011;22957;50.824;4.360;2024-01-15T00:41:12;24.10;;;10.50;;
2390;SDS011;22957;50.824;4.360;2024-01-15T00:43:38;25.37;;;10.50;;
2390;SDS011;22957;50.824;4.360;2024-01-15T00:46:04;21.70;;;8.13;;
2390;SDS011;22957;50.824;4.360;2024-01-15T00:48:30;19.33;;;9.40;;
2390;SDS011;22957;50.824;4.360;2024-01-15T00:50:56;16.47;;;7.80;;
2390;SDS011;22957;50.824;4.360;2024-01-15T00:53:21;19.70;;;8.23;;
2390;SDS011;22957;50.824;4.360;2024-01-15T00:55:47;16.30;;;7.83;;
2390;SDS011;22957;50.824;4.360;2024-01-15T00:58:13;19.37;;;7.40;;
2390;SDS011;22957;50.824;4.360;2024-01-15T01:00:39;14.50;;;7.43;;
2390;SDS011;22957;50.824;4.360;2024-01-15T01:03:05;14.80;;;7.27;;
2390;SDS011;22957;50.824;4.360;2024-01-15T01:05:31;16.30;;;7.23;;
2390;SDS011;22957;50.824;4.360;2024-01-15T01:07:56;15.70;;;6.63;;
2390;SDS011;22957;50.824;4.360;2024-01-15T01:10:22;11.50;;;6.03;;
2390;SDS011;22957;50.824;4.360;2024-01-15T01:12:47;13.50;;;6.60;;
2390;SDS011;22957;50.824;4.360;2024-01-15T01:15:13;10.77;;;6.33;;
2390;SDS011;22957;50.824;4.360;2024-01-15T01:17:39;11.43;;;6.00;;
2390;SDS011;22957;50.824;4.360;2024-01-15T01:20:04;14.97;;;6.50;;
2390;SDS011;22957;50.824;4.360;2024-01-15T01:22:33;10.73;;;5.40;;
2390;SDS011;22957;50.824;4.360;2024-01-15T01:24:59;12.30;;;6.33;;
2390;SDS011;22957;50.824;4.360;2024-01-15T01:27:24;11.60;;;5.97;;
2390;SDS011;22957;50.824;4.360;2024-01-15T01:29:50;12.90;;;5.43;;
2390;SDS011;22957;50.824;4.360;2024-01-15T01:32:16;11.37;;;6.33;;
2390;SDS011;22957;50.824;4.360;2024-01-15T01:34:42;14.50;;;6.10;;
2390;SDS011;22957;50.824;4.360;2024-01-15T01:37:08;12.43;;;6.03;;
2390;SDS011;22957;50.824;4.360;2024-01-15T01:39:34;14.10;;;6.10;;
2390;SDS011;22957;50.824;4.360;2024-01-15T01:42:00;14.40;;;5.60;;
2390;SDS011;22957;50.824;4.360;2024-01-15T01:44:25;19.23;;;5.70;;
2390;SDS011;22957;50.824;4.360;2024-01-15T01:46:51;10.43;;;5.90;;
2390;SDS011;22957;50.824;4.360;2024-01-15T01:49:17;9.10;;;4.50;;
2390;SDS011;22957;50.824;4.360;2024-01-15T01:51:43;11.70;;;4.63;;
2390;SDS011;22957;50.824;4.360;2024-01-15T01:54:09;6.67;;;4.10;;
2390;SDS011;22957;50.824;4.360;2024-01-15T01:56:37;8.13;;;4.27;;
2390;SDS011;22957;50.824;4.360;2024-01-15T01:59:03;9.37;;;4.40;;
2390;SDS011;22957;50.824;4.360;2024-01-15T02:01:30;7.20;;;4.10;;
2390;SDS011;22957;50.824;4.360;2024-01-15T02:03:56;8.77;;;4.50;;
2390;SDS011;22957;50.824;4.360;2024-01-15T02:06:23;9.97;;;4.27;;
2390;SDS011;22957;50.824;4.360;2024-01-15T02:08:49;20.33;;;4.97;;
2390;SDS011;22957;50.824;4.360;2024-01-15T02:11:15;5.67;;;3.20;;
2390;SDS011;22957;50.824;4.360;2024-01-15T02:13:41;6.90;;;3.33;;
2390;SDS011;22957;50.824;4.360;2024-01-15T02:16:06;8.80;;;3.60;;
2390;SDS011;22957;50.824;4.360;2024-01-15T02:18:41;7.80;;;3.70;;
2390;SDS011;22957;50.824;4.360;2024-01-15T02:21:07;7.60;;;4.00;;
2390;SDS011;22957;50.824;4.360;2024-01-15T02:23:34;10.33;;;3.70;;
2390;SDS011;22957;50.824;4.360;2024-01-15T02:25:59;6.37;;;2.73;;
2390;SDS011;22957;50.824;4.360;2024-01-15T02:28:25;8.13;;;2.90;;
2390;SDS011;22957;50.824;4.360;2024-01-15T02:30:51;6.80;;;3.47;;
2390;SDS011;22957;50.824;4.360;2024-01-15T02:33:17;8.33;;;3.23;;
2390;SDS011;22957;50.824;4.360;2024-01-15T02:35:42;5.03;;;3.20;;
2390;SDS011;22957;50.824;4.360;2024-01-15T02:38:08;6.53;;;3.50;;
2390;SDS011;22957;50.824;4.360;2024-01-15T02:40:34;5.60;;;3.80;;
2390;SDS011;22957;50.824;4.360;2024-01-15T02:43:00;5.37;;;3.40;;
2390;SDS011;22957;50.824;4.360;2024-01-15T02:45:26;9.37;;;5.13;;
2390;SDS011;22957;50.824;4.360;2024-01-15T02:47:52;8.90;;;3.90;;
2390;SDS011;22957;50.824;4.360;2024-01-15T02:50:18;14.90;;;6.60;;
2390;SDS011;22957;50.824;4.360;2024-01-15T02:52:43;16.13;;;7.10;;
2390;SDS011;22957;50.824;4.360;2024-01-15T02:55:09;11.47;;;5.97;;
2390;SDS011;22957;50.824;4.360;2024-01-15T02:57:34;15.10;;;6.70;;
2390;SDS011;22957;50.824;4.360;2024-01-15T03:00:00;13.73;;;6.67;;
2390;SDS011;22957;50.824;4.360;2024-01-15T03:02:26;14.17;;;8.03;;
2390;SDS011;22957;50.824;4.360;2024-01-15T03:04:51;15.10;;;6.80;;
2390;SDS011;22957;50.824;4.360;2024-01-15T03:07:17;16.83;;;7.37;;
2390;SDS011;22957;50.824;4.360;2024-01-15T03:09:43;13.60;;;7.33;;
2390;SDS011;22957;50.824;4.360;2024-01-15T03:12:08;13.13;;;6.60;;
2390;SDS011;22957;50.824;4.360;2024-01-15T03:14:35;18.03;;;8.37;;
2390;SDS011;22957;50.824;4.360;2024-01-15T03:17:00;13.87;;;7.23;;
2390;SDS011;22957;50.824;4.360;2024-01-15T03:19:26;16.53;;;8.17;;
2390;SDS011;22957;50.824;4.360;2024-01-15T03:21:51;13.27;;;7.53;;
2390;SDS011;22957;50.824;4.360;2024-01-15T03:24:17;17.83;;;8.23;;
2390;SDS011;22957;50.824;4.360;2024-01-15T03:26:43;14.90;;;7.50;;
2390;SDS011;22957;50.824;4.360;2024-01-15T03:29:08;16.73;;;7.33;;
2390;SDS011;22957;50.824;4.360;2024-01-15T03:31:34;14.87;;;8.00;;
2390;SDS011;22957;50.824;4.360;2024-01-15T03:34:00;15.30;;;7.30;;
2390;SDS011;22957;50.824;4.360;2024-01-15T03:36:25;15.27;;;7.77;;
2390;SDS011;22957;50.824;4.360;2024-01-15T03:38:51;15.67;;;7.40;;
2390;SDS011;22957;50.824;4.360;2024-01-15T03:41:17;17.90;;;9.00;;
2390;SDS011;22957;50.824;4.360;2024-01-15T03:43:42;18.20;;;8.30;;
2390;SDS011;22957;50.824;4.360;2024-01-15T03:46:08;14.77;;;8.30;;
2390;SDS011;22957;50.824;4.360;2024-01-15T03:48:33;20.60;;;10.60;;
2390;SDS011;22957;50.824;4.360;2024-01-15T03:50:59;18.67;;;7.63;;
2390;SDS011;22957;50.824;4.360;2024-01-15T03:53:25;22.13;;;8.77;;
2390;SDS011;22957;50.824;4.360;2024-01-15T03:55:51;15.70;;;8.77;;
2390;SDS011;22957;50.824;4.360;2024-01-15T03:58:17;22.07;;;9.97;;
2390;SDS011;22957;50.824;4.360;2024-01-15T04:00:42;22.57;;;11.23;;
2390;SDS011;22957;50.824;4.360;2024-01-15T04:03:08;18.03;;;9.60;;
2390;SDS011;22957;50.824;4.360;2024-01-15T04:05:34;16.80;;;9.97;;
2390;SDS011;22957;50.824;4.360;2024-01-15T04:08:00;20.57;;;9.70;;
2390;SDS011;22957;50.824;4.360;2024-01-15T04:10:25;25.40;;;11.30;;
2390;SDS011;22957;50.824;4.360;2024-01-15T04:12:51;22.00;;;11.20;;
2390;SDS011;22957;50.824;4.360;2024-01-15T04:15:16;21.93;;;11.30;;
2390;SDS011;22957;50.824;4.360;2024-01-15T04:17:42;20.90;;;10.27;;
2390;SDS011;22957;50.824;4.360;2024-01-15T04:20:08;23.93;;;10.80;;
2390;SDS011;22957;50.824;4.360;2024-01-15T04:22:34;20.10;;;9.67;;
2390;SDS011;22957;50.824;4.360;2024-01-15T04:25:00;20.77;;;10.40;;
2390;SDS011;22957;50.824;4.360;2024-01-15T04:27:26;27.00;;;10.73;;
2390;SDS011;22957;50.824;4.360;2024-01-15T04:29:52;26.30;;;11.60;;
2390;SDS011;22957;50.824;4.360;2024-01-15T04:32:18;26.17;;;10.90;;
2390;SDS011;22957;50.824;4.360;2024-01-15T04:34:43;20.67;;;9.50;;
2390;SDS011;22957;50.824;4.360;2024-01-15T04:37:09;22.13;;;9.93;;
2390;SDS011;22957;50.824;4.360;2024-01-15T04:39:34;17.70;;;8.30;;
2390;SDS011;22957;50.824;4.360;2024-01-15T04:42:00;19.33;;;8.80;;
2390;SDS011;22957;50.824;4.360;2024-01-15T04:44:26;20.77;;;10.00;;
2390;SDS011;22957;50.824;4.360;2024-01-15T04:46:51;15.97;;;8.40;;
2390;SDS011;22957;50.824;4.360;2024-01-15T04:49:17;17.20;;;7.73;;
2390;SDS011;22957;50.824;4.360;2024-01-15T04:51:43;18.27;;;9.07;;
2390;SDS011;22957;50.824;4.360;2024-01-15T04:54:08;15.30;;;8.33;;
2390;SDS011;22957;50.824;4.360;2024-01-15T04:56:34;13.77;;;7.70;;
2390;SDS011;22957;50.824;4.360;2024-01-15T04:58:59;17.13;;;7.10;;
2390;SDS011;22957;50.824;4.360;2024-01-15T05:01:25;14.13;;;5.63;;
2390;SDS011;22957;50.824;4.360;2024-01-15T05:03:50;13.83;;;7.17;;
2390;SDS011;22957;50.824;4.360;2024-01-15T05:06:16;10.23;;;5.23;;
2390;SDS011;22957;50.824;4.360;2024-01-15T05:08:41;13.90;;;5.30;;
2390;SDS011;22957;50.824;4.360;2024-01-15T05:11:07;9.77;;;3.93;;
2390;SDS011;22957;50.824;4.360;2024-01-15T05:13:32;10.90;;;4.53;;
2390;SDS011;22957;50.824;4.360;2024-01-15T05:15:58;7.50;;;3.80;;
2390;SDS011;22957;50.824;4.360;2024-01-15T05:18:24;6.63;;;3.10;;
2390;SDS011;22957;50.824;4.360;2024-01-15T05:20:49;7.80;;;3.27;;
2390;SDS011;22957;50.824;4.360;2024-01-15T05:23:15;4.43;;;2.80;;
2390;SDS011;22957;50.824;4.360;2024-01-15T05:25:40;3.93;;;2.40;;
2390;SDS011;22957;50.824;4.360;2024-01-15T05:28:06;6.40;;;2.50;;
2390;SDS011;22957;50.824;4.360;2024-01-15T05:30:31;5.80;;;3.07;;
2390;SDS011;22957;50.824;4.360;2024-01-15T05:32:57;10.30;;;3.20;;
2390;SDS011;22957;50.824;4.360;2024-01-15T05:35:25;10.17;;;2.53;;
2390;SDS011;22957;50.824;4.360;2024-01-15T05:37:50;3.60;;;1.80;;
2390;SDS011;22957;50.824;4.360;2024-01-15T05:40:16;9.03;;;2.60;;
2390;SDS011;22957;50.824;4.360;2024-01-15T05:42:42;4.97;;;1.67;;
2390;SDS011;22957;50.824;4.360;2024-01-15T05:45:07;3.60;;;2.30;;
2390;SDS011;22957;50.824;4.360;2024-01-15T05:47:33;3.00;;;1.67;;
2390;SDS011;22957;50.824;4.360;2024-01-15T05:50:00;4.40;;;1.83;;
2390;SDS011;22957;50.824;4.360;2024-01-15T05:52:26;2.60;;;2.00;;
2390;SDS011;22957;50.824;4.360;2024-01-15T05:54:52;5.43;;;1.40;;
2390;SDS011;22957;50.824;4.360;2024-01-15T05:57:17;5.30;;;1.93;;
2390;SDS011;22957;50.824;4.360;2024-01-15T05:59:43;3.27;;;1.50;;
2390;SDS011;22957;50.824;4.360;2024-01-15T06:02:09;3.30;;;1.17;;
2390;SDS011;22957;50.824;4.360;2024-01-15T06:04:35;8.67;;;1.30;;
2390;SDS011;22957;50.824;4.360;2024-01-15T06:07:01;5.73;;;1.30;;
2390;SDS011;22957;50.824;4.360;2024-01-15T06:09:27;3.40;;;1.20;;
2390;SDS011;22957;50.824;4.360;2024-01-15T06:11:53;2.30;;;1.13;;
2390;SDS011;22957;50.824;4.360;2024-01-15T06:14:19;5.40;;;1.10;;
2390;SDS011;22957;50.824;4.360;2024-01-15T06:16:44;10.30;;;2.07;;
2390;SDS011;22957;50.824;4.360;2024-01-15T06:19:10;2.40;;;0.90;;
2390;SDS011;22957;50.824;4.360;2024-01-15T06:21:35;4.80;;;0.90;;
2390;SDS011;22957;50.824;4.360;2024-01-15T06:24:01;3.10;;;1.00;;
2390;SDS011;22957;50.824;4.360;2024-01-15T06:26:27;5.13;;;1.47;;
2390;SDS011;22957;50.824;4.360;2024-01-15T06:28:52;2.80;;;0.90;;
2390;SDS011;22957;50.824;4.360;2024-01-15T06:31:18;2.87;;;1.20;;
2390;SDS011;22957;50.824;4.360;2024-01-15T06:33:43;6.83;;;2.00;;
2390;SDS011;22957;50.824;4.360;2024-01-15T06:36:12;6.07;;;1.77;;
2390;SDS011;22957;50.824;4.360;2024-01-15T06:38:37;7.20;;;1.90;;
2390;SDS011;22957;50.824;4.360;2024-01-15T06:41:03;2.90;;;1.60;;
2390;SDS011;22957;50.824;4.360;2024-01-15T06:43:28;5.37;;;1.70;;
2390;SDS011;22957;50.824;4.360;2024-01-15T06:45:54;7.93;;;2.63;;
2390;SDS011;22957;50.824;4.360;2024-01-15T06:48:19;3.00;;;2.40;;
2390;SDS011;22957;50.824;4.360;2024-01-15T06:50:45;8.10;;;2.70;;
2390;SDS011;22957;50.824;4.360;2024-01-15T06:53:11;6.20;;;2.57;;
2390;SDS011;22957;50.824;4.360;2024-01-15T06:55:37;5.97;;;2.53;;
2390;SDS011;22957;50.824;4.360;2024-01-15T06:58:03;2.90;;;2.23;;
2390;SDS011;22957;50.824;4.360;2024-01-15T07:00:29;10.70;;;3.50;;
2390;SDS011;22957;50.824;4.360;2024-01-15T07:02:55;6.13;;;2.73;;
2390;SDS011;22957;50.824;4.360;2024-01-15T07:05:21;5.40;;;3.40;;
2390;SDS011;22957;50.824;4.360;2024-01-15T07:07:46;5.00;;;2.63;;
2390;SDS011;22957;50.824;4.360;2024-01-15T07:10:12;9.73;;;2.63;;
2390;SDS011;22957;50.824;4.360;2024-01-15T07:12:38;4.57;;;2.83;;
2390;SDS011;22957;50.824;4.360;2024-01-15T07:15:04;4.30;;;2.80;;
2390;SDS011;22957;50.824;4.360;2024-01-15T07:17:32;4.70;;;2.37;;
2390;SDS011;22957;50.824;4.360;2024-01-15T07:19:58;7.00;;;2.80;;
2390;SDS011;22957;50.824;4.360;2024-01-15T07:22:24;12.03;;;2.53;;
2390;SDS011;22957;50.824;4.360;2024-01-15T07:24:49;7.17;;;2.70;;
2390;SDS011;22957;50.824;4.360;2024-01-15T07:27:15;6.93;;;2.73;;
2390;SDS011;22957;50.824;4.360;2024-01-15T07:29:41;4.83;;;2.67;;
2390;SDS011;22957;50.824;4.360;2024-01-15T07:32:08;5.73;;;2.93;;
2390;SDS011;22957;50.824;4.360;2024-01-15T07:34:34;8.93;;;3.10;;
2390;SDS011;22957;50.824;4.360;2024-01-15T07:36:59;5.80;;;3.83;;
2390;SDS011;22957;50.824;4.360;2024-01-15T07:39:25;9.17;;;3.13;;
2390;SDS011;22957;50.824;4.360;2024-01-15T07:41:51;8.87;;;4.23;;
2390;SDS011;22957;50.824;4.360;2024-01-15T07:44:17;8.87;;;3.50;;
2390;SDS011;22957;50.824;4.360;2024-01-15T07:46:46;4.63;;;3.33;;
2390;SDS011;22957;50.824;4.360;2024-01-15T07:49:12;9.17;;;3.53;;
2390;SDS011;22957;50.824;4.360;2024-01-15T07:51:38;9.00;;;3.87;;
2390;SDS011;22957;50.824;4.360;2024-01-15T07:54:05;6.07;;;2.87;;
2390;SDS011;22957;50.824;4.360;2024-01-15T07:56:32;12.03;;;3.77;;
2390;SDS011;22957;50.824;4.360;2024-01-15T07:58:57;5.87;;;3.43;;
2390;SDS011;22957;50.824;4.360;2024-01-15T08:01:23;6.30;;;3.80;;
2390;SDS011;22957;50.824;4.360;2024-01-15T08:03:49;10.93;;;4.43;;
2390;SDS011;22957;50.824;4.360;2024-01-15T08:06:14;6.17;;;2.97;;
2390;SDS011;22957;50.824;4.360;2024-01-15T08:08:40;5.83;;;2.87;;
2390;SDS011;22957;50.824;4.360;2024-01-15T08:11:06;6.40;;;3.67;;
2390;SDS011;22957;50.824;4.360;2024-01-15T08:13:31;4.80;;;3.23;;
2390;SDS011;22957;50.824;4.360;2024-01-15T08:15:57;11.23;;;3.10;;
2390;SDS011;22957;50.824;4.360;2024-01-15T08:18:23;8.67;;;3.57;;
2390;SDS011;22957;50.824;4.360;2024-01-15T08:20:49;10.37;;;3.17;;
2390;SDS011;22957;50.824;4.360;2024-01-15T08:23:16;16.97;;;3.23;;
2390;SDS011;22957;50.824;4.360;2024-01-15T08:25:42;11.53;;;3.07;;
2390;SDS011;22957;50.824;4.360;2024-01-15T08:28:07;15.60;;;3.10;;
2390;SDS011;22957;50.824;4.360;2024-01-15T08:30:33;6.20;;;2.97;;
2390;SDS011;22957;50.824;4.360;2024-01-15T08:32:59;6.93;;;2.57;;
2390;SDS011;22957;50.824;4.360;2024-01-15T08:35:25;6.93;;;2.70;;
2390;SDS011;22957;50.824;4.360;2024-01-15T08:37:50;7.40;;;2.20;;
2390;SDS011;22957;50.824;4.360;2024-01-15T08:40:17;5.37;;;2.10;;
2390;SDS011;22957;50.824;4.360;2024-01-15T08:42:43;8.63;;;2.37;;
2390;SDS011;22957;50.824;4.360;2024-01-15T08:45:10;5.70;;;1.53;;
2390;SDS011;22957;50.824;4.360;2024-01-15T08:47:37;12.10;;;2.43;;
2390;SDS011;22957;50.824;4.360;2024-01-15T08:50:03;4.50;;;2.13;;
2390;SDS011;22957;50.824;4.360;2024-01-15T08:52:30;5.83;;;2.03;;
2390;SDS011;22957;50.824;4.360;2024-01-15T08:54:56;5.23;;;2.00;;
2390;SDS011;22957;50.824;4.360;2024-01-15T08:57:22;6.07;;;1.63;;
2390;SDS011;22957;50.824;4.360;2024-01-15T08:59:48;3.73;;;1.30;;
2390;SDS011;22957;50.824;4.360;2024-01-15T09:02:14;4.33;;;1.30;;
2390;SDS011;22957;50.824;4.360;2024-01-15T09:04:39;8.60;;;1.67;;
2390;SDS011;22957;50.824;4.360;2024-01-15T09:07:05;5.43;;;1.33;;
2390;SDS011;22957;50.824;4.360;2024-01-15T09:09:32;9.93;;;1.20;;
2390;SDS011;22957;50.824;4.360;2024-01-15T09:11:59;4.23;;;1.27;;
2390;SDS011;22957;50.824;4.360;2024-01-15T09:14:24;5.27;;;1.57;;
2390;SDS011;22957;50.824;4.360;2024-01-15T09:16:51;7.77;;;1.70;;
2390;SDS011;22957;50.824;4.360;2024-01-15T09:19:18;4.63;;;1.60;;
2390;SDS011;22957;50.824;4.360;2024-01-15T09:21:43;5.30;;;1.50;;
2390;SDS011;22957;50.824;4.360;2024-01-15T09:24:09;5.87;;;1.47;;
2390;SDS011;22957;50.824;4.360;2024-01-15T09:26:34;4.20;;;1.10;;
2390;SDS011;22957;50.824;4.360;2024-01-15T09:29:00;8.23;;;1.20;;
2390;SDS011;22957;50.824;4.360;2024-01-15T09:31:26;7.00;;;1.83;;
2390;SDS011;22957;50.824;4.360;2024-01-15T09:33:52;9.43;;;1.40;;
2390;SDS011;22957;50.824;4.360;2024-01-15T09:36:21;6.80;;;1.37;;
2390;SDS011;22957;50.824;4.360;2024-01-15T09:38:47;8.00;;;1.30;;
2390;SDS011;22957;50.824;4.360;2024-01-15T09:41:13;5.43;;;1.30;;
2390;SDS011;22957;50.824;4.360;2024-01-15T09:43:39;11.83;;;1.40;;
2390;SDS011;22957;50.824;4.360;2024-01-15T09:46:05;19.17;;;2.03;;
2390;SDS011;22957;50.824;4.360;2024-01-15T09:48:31;2.37;;;1.10;;
2390;SDS011;22957;50.824;4.360;2024-01-15T09:50:59;19.20;;;1.33;;
2390;SDS011;22957;50.824;4.360;2024-01-15T09:53:27;12.40;;;1.60;;
2390;SDS011;22957;50.824;4.360;2024-01-15T09:55:52;8.10;;;1.97;;
2390;SDS011;22957;50.824;4.360;2024-01-15T09:58:18;4.40;;;1.83;;
2390;SDS011;22957;50.824;4.360;2024-01-15T10:00:44;5.00;;;1.33;;
2390;SDS011;22957;50.824;4.360;2024-01-15T10:03:12;6.20;;;1.33;;
2390;SDS011;22957;50.824;4.360;2024-01-15T10:05:38;4.03;;;1.33;;
2390;SDS011;22957;50.824;4.360;2024-01-15T10:08:04;5.50;;;1.33;;
2390;SDS011;22957;50.824;4.360;2024-01-15T10:10:30;5.27;;;1.40;;
2390;SDS011;22957;50.824;4.360;2024-01-15T10:12:57;8.63;;;1.40;;
2390;SDS011;22957;50.824;4.360;2024-01-15T10:15:23;7.13;;;1.33;;
2390;SDS011;22957;50.824;4.360;2024-01-15T10:17:51;5.70;;;1.20;;
2390;SDS011;22957;50.824;4.360;2024-01-15T10:20:17;5.57;;;1.23;;
2390;SDS011;22957;50.824;4.360;2024-01-15T10:22:42;4.20;;;1.50;;
2390;SDS011;22957;50.824;4.360;2024-01-15T10:25:13;4.77;;;1.47;;
2390;SDS011;22957;50.824;4.360;2024-01-15T10:27:40;6.23;;;1.70;;
2390;SDS011;22957;50.824;4.360;2024-01-15T10:30:11;4.10;;;1.00;;
2390;SDS011;22957;50.824;4.360;2024-01-15T10:32:39;5.30;;;1.50;;
2390;SDS011;22957;50.824;4.360;2024-01-15T10:35:06;8.33;;;1.50;;
2390;SDS011;22957;50.824;4.360;2024-01-15T10:37:33;4.80;;;1.20;;
2390;SDS011;22957;50.824;4.360;2024-01-15T10:40:01;6.80;;;1.30;;
2390;SDS011;22957;50.824;4.360;2024-01-15T10:42:30;5.00;;;0.93;;
2390;SDS011;22957;50.824;4.360;2024-01-15T10:44:55;6.07;;;1.40;;
2390;SDS011;22957;50.824;4.360;2024-01-15T10:47:21;2.73;;;1.00;;
2390;SDS011;22957;50.824;4.360;2024-01-15T10:49:47;9.43;;;1.57;;
2390;SDS011;22957;50.824;4.360;2024-01-15T10:52:14;6.27;;;1.50;;
2390;SDS011;22957;50.824;4.360;2024-01-15T10:54:40;5.00;;;1.33;;
2390;SDS011;22957;50.824;4.360;2024-01-15T10:57:08;10.43;;;1.17;;
2390;SDS011;22957;50.824;4.360;2024-01-15T10:59:33;5.20;;;1.70;;
2390;SDS011;22957;50.824;4.360;2024-01-15T11:02:01;7.93;;;1.40;;
2390;SDS011;22957;50.824;4.360;2024-01-15T11:04:26;7.67;;;1.33;;
2390;SDS011;22957;50.824;4.360;2024-01-15T11:06:53;11.80;;;1.67;;
2390;SDS011;22957;50.824;4.360;2024-01-15T11:09:20;4.67;;;1.60;;
2390;SDS011;22957;50.824;4.360;2024-01-15T11:11:46;4.97;;;1.10;;
2390;SDS011;22957;50.824;4.360;2024-01-15T11:17:04;10.00;;;1.20;;
2390;SDS011;22957;50.824;4.360;2024-01-15T11:19:46;8.90;;;1.50;;
2390;SDS011;22957;50.824;4.360;2024-01-15T11:24:56;6.80;;;1.40;;
2390;SDS011;22957;50.824;4.360;2024-01-15T11:27:44;5.93;;;1.07;;
2390;SDS011;22957;50.824;4.360;2024-01-15T11:30:17;7.40;;;1.43;;
2390;SDS011;22957;50.824;4.360;2024-01-15T11:32:47;3.77;;;1.10;;
2390;SDS011;22957;50.824;4.360;2024-01-15T11:35:13;5.80;;;1.37;;
2390;SDS011;22957;50.824;4.360;2024-01-15T11:40:22;2.70;;;0.80;;
2390;SDS011;22957;50.824;4.360;2024-01-15T11:42:54;5.73;;;1.43;;
2390;SDS011;22957;50.824;4.360;2024-01-15T11:45:19;4.40;;;1.00;;
2390;SDS011;22957;50.824;4.360;2024-01-15T11:50:43;5.73;;;1.00;;
2390;SDS011;22957;50.824;4.360;2024-01-15T11:53:13;7.97;;;1.37;;
2390;SDS011;22957;50.824;4.360;2024-01-15T11:55:51;7.30;;;1.40;;
2390;SDS011;22957;50.824;4.360;2024-01-15T11:58:17;6.00;;;1.00;;
2390;SDS011;22957;50.824;4.360;2024-01-15T12:00:44;8.83;;;1.03;;
2390;SDS011;22957;50.824;4.360;2024-01-15T12:03:12;10.30;;;2.17;;
2390;SDS011;22957;50.824;4.360;2024-01-15T12:05:38;7.30;;;1.40;;
2390;SDS011;22957;50.824;4.360;2024-01-15T12:08:05;3.73;;;0.90;;
2390;SDS011;22957;50.824;4.360;2024-01-15T12:10:35;5.73;;;1.20;;
2390;SDS011;22957;50.824;4.360;2024-01-15T12:13:09;2.60;;;1.00;;
2390;SDS011;22957;50.824;4.360;2024-01-15T12:15:35;9.07;;;1.10;;
2390;SDS011;22957;50.824;4.360;2024-01-15T12:18:01;4.57;;;0.90;;
2390;SDS011;22957;50.824;4.360;2024-01-15T12:20:30;7.37;;;1.13;;
2390;SDS011;22957;50.824;4.360;2024-01-15T12:22:57;5.73;;;0.90;;
2390;SDS011;22957;50.824;4.360;2024-01-15T12:25:23;5.73;;;1.17;;
2390;SDS011;22957;50.824;4.360;2024-01-15T12:27:52;5.57;;;1.47;;
2390;SDS011;22957;50.824;4.360;2024-01-15T12:30:17;5.20;;;1.00;;
2390;SDS011;22957;50.824;4.360;2024-01-15T12:32:43;6.83;;;1.07;;
2390;SDS011;22957;50.824;4.360;2024-01-15T12:35:10;2.13;;;1.00;;
2390;SDS011;22957;50.824;4.360;2024-01-15T12:37:36;5.90;;;1.20;;
2390;SDS011;22957;50.824;4.360;2024-01-15T12:40:03;6.67;;;0.90;;
2390;SDS011;22957;50.824;4.360;2024-01-15T12:42:32;10.70;;;1.60;;
2390;SDS011;22957;50.824;4.360;2024-01-15T12:44:58;3.43;;;1.00;;
2390;SDS011;22957;50.824;4.360;2024-01-15T12:47:24;4.83;;;0.97;;
2390;SDS011;22957;50.824;4.360;2024-01-15T12:49:51;5.67;;;1.23;;
2390;SDS011;22957;50.824;4.360;2024-01-15T12:52:19;5.50;;;1.00;;
2390;SDS011;22957;50.824;4.360;2024-01-15T12:54:46;8.13;;;1.07;;
2390;SDS011;22957;50.824;4.360;2024-01-15T12:57:15;4.30;;;1.53;;
2390;SDS011;22957;50.824;4.360;2024-01-15T12:59:42;5.13;;;1.20;;
2390;SDS011;22957;50.824;4.360;2024-01-15T13:02:09;4.27;;;0.93;;
2390;SDS011;22957;50.824;4.360;2024-01-15T13:04:36;3.50;;;1.30;;
2390;SDS011;22957;50.824;4.360;2024-01-15T13:07:02;5.03;;;1.00;;
2390;SDS011;22957;50.824;4.360;2024-01-15T13:09:28;5.67;;;0.80;;
2390;SDS011;22957;50.824;4.360;2024-01-15T13:11:54;4.33;;;0.70;;
2390;SDS011;22957;50.824;4.360;2024-01-15T13:14:20;4.07;;;1.20;;
2390;SDS011;22957;50.824;4.360;2024-01-15T13:16:46;9.50;;;1.40;;
2390;SDS011;22957;50.824;4.360;2024-01-15T13:19:11;4.57;;;1.30;;
2390;SDS011;22957;50.824;4.360;2024-01-15T13:21:38;2.50;;;0.83;;
2390;SDS011;22957;50.824;4.360;2024-01-15T13:24:04;7.63;;;1.10;;
2390;SDS011;22957;50.824;4.360;2024-01-15T13:26:31;5.57;;;1.17;;
2390;SDS011;22957;50.824;4.360;2024-01-15T13:28:57;5.50;;;1.37;;
2390;SDS011;22957;50.824;4.360;2024-01-15T13:31:24;5.50;;;1.40;;
2390;SDS011;22957;50.824;4.360;2024-01-15T13:33:50;6.53;;;0.90;;
2390;SDS011;22957;50.824;4.360;2024-01-15T13:36:16;5.50;;;1.20;;
2390;SDS011;22957;50.824;4.360;2024-01-15T13:38:41;6.47;;;1.10;;
2390;SDS011;22957;50.824;4.360;2024-01-15T13:41:07;7.30;;;0.97;;
2390;SDS011;22957;50.824;4.360;2024-01-15T13:43:34;4.50;;;0.83;;
2390;SDS011;22957;50.824;4.360;2024-01-15T13:46:00;6.13;;;1.10;;
2390;SDS011;22957;50.824;4.360;2024-01-15T13:48:30;2.83;;;1.00;;
2390;SDS011;22957;50.824;4.360;2024-01-15T13:50:57;2.23;;;0.90;;
2390;SDS011;22957;50.824;4.360;2024-01-15T13:53:24;6.63;;;1.00;;
2390;SDS011;22957;50.824;4.360;2024-01-15T13:55:51;7.80;;;0.97;;
2390;SDS011;22957;50.824;4.360;2024-01-15T13:58:17;5.20;;;1.30;;
2390;SDS011;22957;50.824;4.360;2024-01-15T14:00:43;5.43;;;1.23;;
2390;SDS011;22957;50.824;4.360;2024-01-15T14:03:09;5.80;;;1.50;;
2390;SDS011;22957;50.824;4.360;2024-01-15T14:05:34;5.90;;;1.57;;
2390;SDS011;22957;50.824;4.360;2024-01-15T14:08:00;10.43;;;1.67;;
2390;SDS011;22957;50.824;4.360;2024-01-15T14:10:26;8.67;;;1.13;;
2390;SDS011;22957;50.824;4.360;2024-01-15T14:12:51;2.23;;;1.10;;
2390;SDS011;22957;50.824;4.360;2024-01-15T14:15:17;10.23;;;1.80;;
2390;SDS011;22957;50.824;4.360;2024-01-15T14:17:44;8.00;;;1.27;;
2390;SDS011;22957;50.824;4.360;2024-01-15T14:20:09;3.40;;;1.30;;
2390;SDS011;22957;50.824;4.360;2024-01-15T14:22:35;12.43;;;1.60;;
2390;SDS011;22957;50.824;4.360;2024-01-15T14:25:01;6.53;;;1.17;;
2390;SDS011;22957;50.824;4.360;2024-01-15T14:27:26;4.50;;;1.00;;
2390;SDS011;22957;50.824;4.360;2024-01-15T14:29:52;4.60;;;1.20;;
2390;SDS011;22957;50.824;4.360;2024-01-15T14:32:17;8.20;;;1.23;;
2390;SDS011;22957;50.824;4.360;2024-01-15T14:34:43;8.70;;;1.20;;
2390;SDS011;22957;50.824;4.360;2024-01-15T14:37:09;3.67;;;1.73;;
2390;SDS011;22957;50.824;4.360;2024-01-15T14:39:34;5.03;;;1.00;;
2390;SDS011;22957;50.824;4.360;2024-01-15T14:42:00;1.83;;;0.80;;
2390;SDS011;22957;50.824;4.360;2024-01-15T14:44:26;5.00;;;0.90;;
2390;SDS011;22957;50.824;4.360;2024-01-15T14:46:53;4.40;;;1.00;;
2390;SDS011;22957;50.824;4.360;2024-01-15T14:49:19;3.40;;;1.10;;
2390;SDS011;22957;50.824;4.360;2024-01-15T14:51:45;5.87;;;1.00;;
2390;SDS011;22957;50.824;4.360;2024-01-15T14:54:11;5.53;;;0.87;;
2390;SDS011;22957;50.824;4.360;2024-01-15T14:56:36;2.57;;;1.00;;
2390;SDS011;22957;50.824;4.360;2024-01-15T14:59:02;3.53;;;0.93;;
2390;SDS011;22957;50.824;4.360;2024-01-15T15:01:27;3.47;;;1.27;;